createdAt,value
2018-09-03T00:02:05.588Z,5.70
2018-09-03T00:04:33.919Z,4.60
2018-09-03T00:07:02.493Z,4.60
2018-09-03T00:09:36.129Z,5.03
2018-09-03T00:12:04.412Z,4.73
2018-09-03T00:14:32.856Z,5.73
2018-09-03T00:17:01.390Z,4.57
2018-09-03T00:19:29.683Z,5.43
2018-09-03T00:21:57.973Z,4.90
2018-09-03T00:24:26.250Z,4.17
2018-09-03T00:26:54.528Z,5.00
2018-09-03T00:29:22.795Z,6.07
2018-09-03T00:31:56.422Z,4.37
2018-09-03T00:34:30.150Z,4.60
2018-09-03T00:37:03.766Z,5.40
2018-09-03T00:39:37.458Z,5.47
2018-09-03T00:42:11.239Z,4.70
2018-09-03T00:44:44.990Z,4.77
2018-09-03T00:47:13.353Z,6.23
2018-09-03T00:49:41.685Z,4.73
2018-09-03T00:52:09.956Z,4.60
2018-09-03T00:54:39.452Z,7.00
2018-09-03T00:57:07.848Z,4.63
2018-09-03T00:59:36.130Z,5.13
2018-09-03T01:02:04.408Z,5.07
2018-09-03T01:04:32.946Z,5.13
2018-09-03T01:07:01.305Z,5.40
2018-09-03T01:09:29.577Z,7.20
2018-09-03T01:11:57.886Z,6.40
2018-09-03T01:14:26.153Z,5.60
2018-09-03T01:16:54.433Z,6.00
2018-09-03T01:19:22.727Z,7.43
2018-09-03T01:21:51.085Z,5.90
2018-09-03T01:24:19.405Z,6.10
2018-09-03T01:26:47.676Z,8.00
2018-09-03T01:29:15.962Z,6.67
2018-09-03T01:31:44.237Z,4.70
2018-09-03T01:34:12.550Z,8.93
2018-09-03T01:36:40.827Z,6.07
2018-09-03T01:39:09.396Z,7.37
2018-09-03T01:41:37.672Z,8.50
2018-09-03T01:44:06.067Z,5.50
2018-09-03T01:46:34.413Z,7.40
2018-09-03T01:49:02.688Z,5.83
2018-09-03T01:51:30.976Z,6.20
2018-09-03T01:53:59.320Z,6.70
2018-09-03T01:56:27.635Z,5.67
2018-09-03T01:58:55.904Z,10.40
2018-09-03T02:01:24.236Z,7.50
2018-09-03T02:03:52.568Z,7.23
2018-09-03T02:06:20.952Z,6.83
2018-09-03T02:08:49.244Z,6.83
2018-09-03T02:11:17.525Z,5.53
2018-09-03T02:13:45.817Z,5.67
2018-09-03T02:16:14.082Z,5.70
2018-09-03T02:18:42.402Z,5.83
2018-09-03T02:21:10.694Z,5.37
2018-09-03T02:23:39.250Z,5.10
2018-09-03T02:26:07.586Z,5.90
2018-09-03T02:28:35.861Z,6.93
2018-09-03T02:31:04.450Z,6.50
2018-09-03T02:33:32.772Z,5.93
2018-09-03T02:36:01.090Z,5.13
2018-09-03T02:38:29.381Z,6.50
2018-09-03T02:40:57.758Z,6.07
2018-09-03T02:43:26.032Z,5.93
2018-09-03T02:45:54.312Z,6.30
2018-09-03T02:48:22.589Z,6.30
2018-09-03T02:50:50.838Z,5.90
2018-09-03T02:53:19.827Z,6.47
2018-09-03T02:55:48.126Z,7.80
2018-09-03T02:58:16.406Z,7.07
2018-09-03T03:00:44.653Z,6.70
2018-09-03T03:03:12.960Z,5.43
2018-09-03T03:05:41.208Z,5.03
2018-09-03T03:08:09.492Z,6.43
2018-09-03T03:10:37.782Z,6.37
2018-09-03T03:13:06.248Z,6.30
2018-09-03T03:15:34.615Z,5.93
2018-09-03T03:18:02.867Z,6.83
2018-09-03T03:20:31.131Z,6.17
2018-09-03T03:22:59.404Z,6.50
2018-09-03T03:25:27.701Z,7.80
2018-09-03T03:27:56.153Z,7.13
2018-09-03T03:30:24.467Z,7.47
2018-09-03T03:32:52.765Z,7.43
2018-09-03T03:35:21.057Z,5.63
2018-09-03T03:37:49.722Z,5.57
2018-09-03T03:40:19.010Z,5.33
2018-09-03T03:42:47.315Z,7.80
2018-09-03T03:45:15.803Z,6.37
2018-09-03T03:47:44.077Z,10.83
2018-09-03T03:50:12.361Z,6.27
2018-09-03T03:52:40.637Z,5.30
2018-09-03T03:55:08.980Z,5.43
2018-09-03T03:57:37.568Z,7.07
2018-09-03T04:00:06.327Z,5.70
2018-09-03T04:02:34.691Z,6.60
2018-09-03T04:05:02.966Z,5.80
2018-09-03T04:07:31.258Z,8.57
2018-09-03T04:09:59.594Z,7.97
2018-09-03T04:12:27.841Z,6.80
2018-09-03T04:14:56.181Z,6.93
2018-09-03T04:17:24.462Z,10.10
2018-09-03T04:20:03.071Z,6.50
2018-09-03T04:22:32.138Z,6.23
2018-09-03T04:25:00.585Z,7.30
2018-09-03T04:27:28.875Z,10.77
2018-09-03T04:29:57.186Z,7.40
2018-09-03T04:32:25.544Z,6.80
2018-09-03T04:34:53.841Z,6.77
2018-09-03T04:37:22.104Z,8.73
2018-09-03T04:39:50.396Z,6.60
2018-09-03T04:42:18.692Z,13.23
2018-09-03T04:44:47.031Z,8.10
2018-09-03T04:47:15.309Z,9.23
2018-09-03T04:49:43.846Z,7.90
2018-09-03T04:52:12.124Z,7.20
2018-09-03T04:54:40.462Z,8.87
2018-09-03T04:57:08.769Z,17.00
2018-09-03T04:59:37.085Z,14.40
2018-09-03T05:02:05.679Z,8.93
2018-09-03T05:04:34.033Z,7.40
2018-09-03T05:07:02.331Z,6.83
2018-09-03T05:09:30.648Z,7.70
2018-09-03T05:11:59.058Z,9.57
2018-09-03T05:14:27.390Z,14.23
2018-09-03T05:16:55.693Z,16.10
2018-09-03T05:19:23.997Z,11.20
2018-09-03T05:21:52.593Z,7.50
2018-09-03T05:24:21.047Z,8.30
2018-09-03T05:26:49.393Z,9.47
2018-09-03T05:29:17.829Z,8.87
2018-09-03T05:31:46.159Z,8.10
2018-09-03T05:34:14.443Z,6.60
2018-09-03T05:36:42.759Z,8.03
2018-09-03T05:39:12.574Z,12.80
2018-09-03T05:41:40.900Z,10.40
2018-09-03T05:44:09.945Z,9.33
2018-09-03T05:46:38.868Z,6.50
2018-09-03T05:49:07.140Z,7.80
2018-09-03T05:51:35.444Z,9.00
2018-09-03T05:54:03.752Z,8.07
2018-09-03T05:56:32.063Z,8.03
2018-09-03T05:59:00.439Z,7.30
2018-09-03T06:01:28.758Z,7.07
2018-09-03T06:03:57.057Z,7.77
2018-09-03T06:06:25.414Z,7.33
2018-09-03T06:08:53.712Z,6.03
2018-09-03T06:11:22.006Z,6.50
2018-09-03T06:13:50.300Z,7.73
2018-09-03T06:16:18.644Z,9.20
2018-09-03T06:18:46.957Z,10.53
2018-09-03T06:21:15.268Z,7.50
2018-09-03T06:23:43.561Z,7.43
2018-09-03T06:26:11.949Z,9.60
2018-09-03T06:28:40.243Z,7.30
2018-09-03T06:31:08.572Z,8.30
2018-09-03T06:33:36.841Z,10.97
2018-09-03T06:36:05.157Z,7.70
2018-09-03T06:38:33.436Z,9.30
2018-09-03T06:41:01.713Z,8.40
2018-09-03T06:43:30.045Z,6.47
2018-09-03T06:45:58.409Z,9.17
2018-09-03T06:48:26.714Z,7.27
2018-09-03T06:50:55.007Z,8.87
2018-09-03T06:53:23.571Z,14.03
2018-09-03T06:55:51.895Z,9.03
2018-09-03T06:58:20.257Z,7.20
2018-09-03T07:00:48.525Z,8.90
2018-09-03T07:03:16.800Z,8.23
2018-09-03T07:05:45.512Z,7.50
2018-09-03T07:08:14.807Z,8.13
2018-09-03T07:10:43.072Z,7.80
2018-09-03T07:13:11.363Z,11.60
2018-09-03T07:15:39.624Z,7.43
2018-09-03T07:18:07.914Z,11.20
2018-09-03T07:20:36.354Z,7.90
2018-09-03T07:23:04.681Z,7.70
2018-09-03T07:25:33.136Z,7.40
2018-09-03T07:28:01.412Z,10.03
2018-09-03T07:30:29.704Z,7.57
2018-09-03T07:32:58.000Z,7.33
2018-09-03T07:35:26.339Z,8.73
2018-09-03T07:37:54.576Z,8.40
2018-09-03T07:40:22.871Z,8.73
2018-09-03T07:42:51.363Z,11.07
2018-09-03T07:45:19.746Z,8.40
2018-09-03T07:47:48.020Z,15.20
2018-09-03T07:50:16.304Z,10.50
2018-09-03T07:52:44.676Z,9.17
2018-09-03T07:55:12.977Z,11.77
2018-09-03T07:57:41.246Z,10.80
2018-09-03T08:00:09.719Z,10.47
2018-09-03T08:02:38.104Z,8.37
2018-09-03T08:05:07.084Z,10.63
2018-09-03T08:07:35.375Z,10.43
2018-09-03T08:10:03.704Z,11.97
2018-09-03T08:12:32.021Z,17.40
2018-09-03T08:15:00.289Z,11.57
2018-09-03T08:17:28.589Z,11.93
2018-09-03T08:19:56.955Z,15.77
2018-09-03T08:22:25.183Z,13.30
2018-09-03T08:24:53.459Z,12.87
2018-09-03T08:27:21.850Z,12.70
2018-09-03T08:29:50.150Z,11.40
2018-09-03T08:32:18.425Z,13.90
2018-09-03T08:34:46.726Z,13.93
2018-09-03T08:37:15.056Z,13.07
2018-09-03T08:39:43.428Z,10.67
2018-09-03T08:42:11.720Z,11.37
2018-09-03T08:44:40.379Z,10.73
2018-09-03T08:47:08.702Z,14.03
2018-09-03T08:49:36.983Z,14.00
2018-09-03T08:52:05.352Z,13.90
2018-09-03T08:54:33.699Z,14.60
2018-09-03T08:57:01.977Z,13.50
2018-09-03T08:59:30.249Z,12.97
2018-09-03T09:01:58.566Z,19.37
2018-09-03T09:04:26.888Z,13.40
2018-09-03T09:06:55.164Z,14.30
2018-09-03T09:09:23.508Z,12.10
2018-09-03T09:11:51.795Z,16.23
2018-09-03T09:14:20.162Z,13.17
2018-09-03T09:16:48.484Z,18.47
2018-09-03T09:19:16.872Z,13.93
2018-09-03T09:21:45.138Z,14.70
2018-09-03T09:24:13.402Z,11.40
2018-09-03T09:26:41.719Z,15.13
2018-09-03T09:29:09.976Z,12.37
2018-09-03T09:31:38.280Z,10.83
2018-09-03T09:34:06.561Z,11.87
2018-09-03T09:36:34.848Z,13.70
2018-09-03T09:39:03.712Z,14.77
2018-09-03T09:41:33.858Z,12.70
2018-09-03T09:44:02.946Z,14.90
2018-09-03T09:46:31.303Z,12.83
2018-09-03T09:48:59.585Z,11.80
2018-09-03T09:51:28.075Z,10.70
2018-09-03T09:53:56.572Z,14.00
2018-09-03T09:56:24.862Z,12.90
2018-09-03T09:58:53.170Z,14.20
2018-09-03T10:01:26.798Z,12.67
2018-09-03T10:03:55.074Z,12.50
2018-09-03T10:06:23.354Z,11.93
2018-09-03T10:08:51.721Z,12.90
2018-09-03T10:11:20.018Z,12.67
2018-09-03T10:13:48.306Z,14.43
2018-09-03T10:16:16.638Z,17.10
2018-09-03T10:18:44.960Z,18.30
2018-09-03T10:21:13.280Z,12.63
2018-09-03T10:23:41.646Z,13.40
2018-09-03T10:26:09.985Z,10.23
2018-09-03T10:28:38.257Z,13.20
2018-09-03T10:31:06.671Z,14.30
2018-09-03T10:33:34.928Z,11.77
2018-09-03T10:36:03.249Z,12.03
2018-09-03T10:38:31.556Z,14.03
2018-09-03T10:40:59.852Z,10.63
2018-09-03T10:43:28.197Z,15.17
2018-09-03T10:45:56.460Z,12.50
2018-09-03T10:48:24.778Z,10.83
2018-09-03T10:50:53.093Z,16.70
2018-09-03T10:53:21.398Z,13.10
2018-09-03T10:55:49.684Z,13.13
2018-09-03T10:58:17.978Z,16.00
2018-09-03T11:00:46.312Z,18.50
2018-09-03T11:03:14.589Z,12.90
2018-09-03T11:05:43.089Z,10.90
2018-09-03T11:08:11.502Z,14.43
2018-09-03T11:10:39.804Z,17.50
2018-09-03T11:13:08.127Z,16.07
2018-09-03T11:15:36.413Z,16.50
2018-09-03T11:18:04.706Z,13.90
2018-09-03T11:20:33.002Z,11.30
2018-09-03T11:23:01.296Z,11.93
2018-09-03T11:25:30.968Z,16.33
2018-09-03T11:27:59.692Z,14.30
2018-09-03T11:30:28.368Z,12.77
2018-09-03T11:32:57.936Z,16.73
2018-09-03T11:35:26.414Z,14.37
2018-09-03T11:37:54.734Z,12.90
2018-09-03T11:40:23.885Z,16.20
2018-09-03T11:42:52.158Z,15.50
2018-09-03T11:45:21.568Z,15.80
2018-09-03T11:47:50.160Z,13.83
2018-09-03T11:50:19.471Z,17.90
2018-09-03T11:52:47.752Z,12.90
2018-09-03T11:55:16.547Z,13.37
2018-09-03T11:57:44.898Z,14.23
2018-09-03T12:00:29.219Z,16.70
2018-09-03T12:02:57.914Z,15.57
2018-09-03T12:05:26.522Z,14.23
2018-09-03T12:07:54.844Z,16.37
2018-09-03T12:10:23.363Z,13.90
2018-09-03T12:12:51.658Z,16.40
2018-09-03T12:15:25.120Z,13.27
2018-09-03T12:17:53.432Z,14.37
2018-09-03T12:20:21.760Z,13.33
2018-09-03T12:22:50.036Z,16.30
2018-09-03T12:25:18.366Z,16.67
2018-09-03T12:27:46.727Z,12.80
2018-09-03T12:30:14.958Z,14.20
2018-09-03T12:32:43.390Z,14.23
2018-09-03T12:35:12.090Z,14.83
2018-09-03T12:37:40.359Z,14.10
2018-09-03T12:40:08.632Z,16.83
2018-09-03T12:42:36.908Z,13.10
2018-09-03T12:45:05.420Z,12.57
2018-09-03T12:47:33.695Z,12.10
2018-09-03T12:50:02.057Z,12.50
2018-09-03T12:52:30.342Z,17.47
2018-09-03T12:54:58.732Z,15.83
2018-09-03T12:57:27.004Z,14.60
2018-09-03T13:00:05.135Z,18.67
2018-09-03T13:02:23.554Z,12.63
2018-09-03T13:04:51.848Z,15.70
2018-09-03T13:07:20.206Z,19.03
2018-09-03T13:09:48.486Z,14.93
2018-09-03T13:12:16.951Z,17.47
2018-09-03T13:14:45.225Z,13.60
2018-09-03T13:17:13.518Z,19.20
2018-09-03T13:19:41.819Z,18.60
2018-09-03T13:22:10.137Z,23.30
2018-09-03T13:24:38.478Z,22.37
2018-09-03T13:27:06.870Z,20.83
2018-09-03T13:29:37.403Z,33.77
2018-09-03T13:32:05.937Z,12.80
2018-09-03T13:34:34.257Z,13.80
2018-09-03T13:37:02.559Z,14.87
2018-09-03T13:39:30.868Z,17.40
2018-09-03T13:42:01.863Z,20.00
2018-09-03T13:44:30.085Z,15.70
2018-09-03T13:46:58.370Z,14.30
2018-09-03T13:49:26.665Z,12.50
2018-09-03T13:51:54.939Z,14.57
2018-09-03T13:54:23.341Z,16.13
2018-09-03T13:56:51.669Z,15.43
2018-09-03T13:59:19.963Z,17.30
2018-09-03T14:01:48.273Z,14.33
2018-09-03T14:04:16.580Z,14.00
2018-09-03T14:06:44.904Z,15.80
2018-09-03T14:09:13.309Z,16.83
2018-09-03T14:11:41.695Z,15.83
2018-09-03T14:14:09.910Z,17.57
2018-09-03T14:16:38.226Z,14.53
2018-09-03T14:19:06.628Z,13.17
2018-09-03T14:21:34.982Z,14.50
2018-09-03T14:24:03.311Z,17.77
2018-09-03T14:26:31.749Z,19.60
2018-09-03T14:29:00.039Z,17.40
2018-09-03T14:31:28.314Z,23.43
2018-09-03T14:33:56.584Z,18.90
2018-09-03T14:36:26.344Z,19.33
2018-09-03T14:38:54.702Z,20.53
2018-09-03T14:41:23.546Z,29.10
2018-09-03T14:43:52.007Z,20.13
2018-09-03T14:46:20.324Z,16.37
2018-09-03T14:48:48.588Z,17.30
2018-09-03T14:51:16.864Z,15.20
2018-09-03T14:53:45.258Z,19.23
2018-09-03T14:56:13.645Z,20.20
2018-09-03T14:58:41.869Z,18.10
2018-09-03T15:01:10.153Z,18.23
2018-09-03T15:03:38.510Z,19.47
2018-09-03T15:06:07.827Z,17.20
2018-09-03T15:08:36.120Z,22.10
2018-09-03T15:11:04.472Z,14.63
2018-09-03T15:13:34.699Z,19.13
2018-09-03T15:16:03.016Z,15.70
2018-09-03T15:18:31.289Z,17.57
2018-09-03T15:20:59.577Z,19.90
2018-09-03T15:23:27.885Z,17.30
2018-09-03T15:25:56.165Z,19.60
2018-09-03T15:28:25.272Z,20.27
2018-09-03T15:30:53.579Z,18.40
2018-09-03T15:33:23.019Z,16.60
2018-09-03T15:35:52.307Z,14.23
2018-09-03T15:38:22.264Z,15.30
2018-09-03T15:40:51.416Z,16.07
2018-09-03T15:43:19.739Z,18.10
2018-09-03T15:45:48.628Z,19.20
2018-09-03T15:48:17.015Z,22.10
2018-09-03T15:50:45.352Z,25.83
2018-09-03T15:53:13.710Z,24.70
2018-09-03T15:55:46.937Z,17.70
2018-09-03T15:58:17.576Z,15.50
2018-09-03T16:00:45.922Z,17.80
2018-09-03T16:03:15.491Z,25.47
2018-09-03T16:05:43.794Z,24.40
2018-09-03T16:08:13.509Z,21.23
2018-09-03T16:10:41.909Z,20.77
2018-09-03T16:13:10.604Z,21.83
2018-09-03T16:15:40.051Z,24.67
2018-09-03T16:18:08.705Z,26.03
2018-09-03T16:20:37.157Z,24.60
2018-09-03T16:23:05.923Z,23.40
2018-09-03T16:25:34.206Z,25.10
2018-09-03T16:28:03.788Z,23.00
2018-09-03T16:30:32.281Z,23.70
2018-09-03T16:33:00.583Z,24.00
2018-09-03T16:35:28.901Z,26.57
2018-09-03T16:37:57.256Z,26.53
2018-09-03T16:40:27.848Z,27.33
2018-09-03T16:42:56.250Z,25.30
2018-09-03T16:45:24.628Z,27.57
2018-09-03T16:47:52.957Z,29.77
2018-09-03T16:50:21.660Z,29.70
2018-09-03T16:52:50.006Z,26.37
2018-09-03T16:55:21.007Z,27.00
2018-09-03T16:57:49.283Z,29.50
2018-09-03T17:00:18.109Z,24.83
2018-09-03T17:02:46.459Z,28.13
2018-09-03T17:05:14.991Z,25.03
2018-09-03T17:07:43.470Z,26.20
2018-09-03T17:10:11.744Z,27.30
2018-09-03T17:12:40.114Z,24.47
2018-09-03T17:15:08.402Z,25.33
2018-09-03T17:17:36.825Z,25.47
2018-09-03T17:20:05.216Z,26.90
2018-09-03T17:22:33.556Z,25.37
2018-09-03T17:25:01.946Z,25.97
2018-09-03T17:27:30.279Z,24.30
2018-09-03T17:29:58.640Z,23.00
2018-09-03T17:32:27.004Z,25.20
2018-09-03T17:34:55.388Z,26.37
2018-09-03T17:37:23.764Z,24.47
2018-09-03T17:39:52.210Z,26.40
2018-09-03T17:42:21.376Z,22.00
2018-09-03T17:44:51.910Z,26.80
2018-09-03T17:47:20.190Z,22.37
2018-09-03T17:49:51.423Z,28.63
2018-09-03T17:52:19.796Z,22.93
2018-09-03T17:54:48.138Z,33.80
2018-09-03T17:57:17.260Z,27.10
2018-09-03T17:59:45.637Z,29.37
2018-09-03T18:02:14.082Z,33.73
2018-09-03T18:04:42.478Z,26.57
2018-09-03T18:07:15.501Z,32.40
2018-09-03T18:09:43.954Z,26.63
2018-09-03T18:12:12.691Z,27.73
2018-09-03T18:14:41.070Z,28.77
2018-09-03T18:17:09.380Z,26.50
2018-09-03T18:19:38.371Z,24.53
2018-09-03T18:22:06.650Z,30.33
2018-09-03T18:24:35.148Z,26.03
2018-09-03T18:27:03.556Z,26.53
2018-09-03T18:29:31.900Z,25.50
2018-09-03T18:32:00.190Z,25.20
2018-09-03T18:34:28.512Z,24.57
2018-09-03T18:36:56.975Z,26.13
2018-09-03T18:39:25.718Z,29.83
2018-09-03T18:41:54.073Z,26.73
2018-09-03T18:44:22.363Z,27.03
2018-09-03T18:46:54.548Z,30.80
2018-09-03T18:49:22.836Z,28.00
2018-09-03T18:51:51.108Z,29.53
2018-09-03T18:54:19.422Z,31.90
2018-09-03T18:56:47.716Z,31.37
2018-09-03T18:59:16.039Z,31.37
2018-09-03T19:01:44.342Z,30.87
2018-09-03T19:04:12.726Z,28.07
2018-09-03T19:06:41.001Z,35.77
2018-09-03T19:09:10.069Z,28.23
2018-09-03T19:11:38.630Z,29.17
2018-09-03T19:14:06.964Z,31.50
2018-09-03T19:16:35.248Z,27.33
2018-09-03T19:19:03.587Z,29.13
2018-09-03T19:21:32.082Z,29.80
2018-09-03T19:24:01.760Z,28.20
2018-09-03T19:26:30.064Z,31.23
2018-09-03T19:28:58.402Z,31.87
2018-09-03T19:31:26.705Z,30.57
2018-09-03T19:33:55.088Z,31.83
2018-09-03T19:36:23.376Z,30.77
2018-09-03T19:38:51.699Z,31.93
2018-09-03T19:41:20.010Z,27.10
2018-09-03T19:43:49.022Z,28.70
2018-09-03T19:46:17.449Z,29.60
2018-09-03T19:48:46.048Z,29.10
2018-09-03T19:51:16.634Z,28.53
2018-09-03T19:53:45.068Z,28.73
2018-09-03T19:56:13.410Z,25.93
2018-09-03T19:58:41.720Z,27.60
2018-09-03T20:01:10.044Z,24.57
2018-09-03T20:03:38.342Z,24.53
2018-09-03T20:06:06.710Z,23.70
2018-09-03T20:08:34.977Z,25.23
2018-09-03T20:11:03.300Z,26.10
2018-09-03T20:13:32.041Z,28.57
2018-09-03T20:16:00.394Z,28.53
2018-09-03T20:18:28.719Z,25.60
2018-09-03T20:20:57.108Z,25.83
2018-09-03T20:23:25.534Z,25.17
2018-09-03T20:25:54.053Z,26.77
2018-09-03T20:28:22.448Z,26.17
2018-09-03T20:30:50.665Z,27.13
2018-09-03T20:33:18.981Z,20.97
2018-09-03T20:35:47.581Z,27.30
2018-09-03T20:38:15.887Z,22.63
2018-09-03T20:40:44.192Z,26.93
2018-09-03T20:43:12.449Z,26.43
2018-09-03T20:45:40.779Z,24.20
2018-09-03T20:48:09.090Z,22.90
2018-09-03T20:50:37.378Z,26.17
2018-09-03T20:53:05.662Z,34.07
2018-09-03T20:55:33.998Z,35.53
2018-09-03T20:58:02.402Z,33.10
2018-09-03T21:00:30.721Z,26.80
2018-09-03T21:02:59.027Z,22.23
2018-09-03T21:05:27.348Z,23.40
2018-09-03T21:07:55.671Z,23.90
2018-09-03T21:10:23.958Z,21.37
2018-09-03T21:12:52.265Z,22.47
2018-09-03T21:15:20.567Z,22.77
2018-09-03T21:17:48.858Z,27.47
2018-09-03T21:20:17.171Z,24.33
2018-09-03T21:22:45.474Z,21.33
2018-09-03T21:25:13.767Z,21.10
2018-09-03T21:27:42.032Z,22.47
2018-09-03T21:30:10.362Z,20.63
2018-09-03T21:32:38.668Z,22.80
2018-09-03T21:35:07.260Z,26.00
2018-09-03T21:37:36.158Z,24.50
2018-09-03T21:40:04.962Z,27.57
2018-09-03T21:42:33.258Z,25.93
2018-09-03T21:45:01.556Z,24.73
2018-09-03T21:47:29.832Z,23.37
2018-09-03T21:49:58.123Z,24.77
2018-09-03T21:52:26.452Z,22.00
2018-09-03T21:54:54.727Z,22.47
2018-09-03T21:57:23.013Z,21.73
2018-09-03T21:59:51.302Z,25.87
2018-09-03T22:02:19.593Z,27.30
2018-09-03T22:04:47.909Z,26.60
2018-09-03T22:07:16.246Z,25.20
2018-09-03T22:09:44.564Z,26.83
2018-09-03T22:12:12.889Z,23.87
2018-09-03T22:14:41.289Z,28.13
2018-09-03T22:17:09.909Z,28.17
2018-09-03T22:19:38.206Z,28.50
2018-09-03T22:22:06.519Z,23.50
2018-09-03T22:24:34.829Z,23.27
2018-09-03T22:27:03.116Z,27.83
2018-09-03T22:29:31.488Z,26.40
2018-09-03T22:31:59.779Z,24.27
2018-09-03T22:34:28.131Z,25.03
2018-09-03T22:36:56.619Z,27.83
2018-09-03T22:39:26.303Z,22.33
2018-09-03T22:41:54.785Z,23.17
2018-09-03T22:44:25.085Z,22.73
2018-09-03T22:46:53.773Z,29.40
2018-09-03T22:49:22.071Z,23.27
2018-09-03T22:51:50.405Z,24.13
2018-09-03T22:54:18.719Z,26.20
2018-09-03T22:56:46.991Z,22.97
2018-09-03T22:59:15.301Z,29.70
2018-09-03T23:01:43.636Z,25.20
2018-09-03T23:04:11.900Z,28.60
2018-09-03T23:06:40.172Z,31.83
2018-09-03T23:09:08.465Z,26.77
2018-09-03T23:11:36.794Z,25.13
2018-09-03T23:14:06.072Z,26.20
2018-09-03T23:16:34.553Z,29.80
2018-09-03T23:19:02.830Z,28.20
2018-09-03T23:21:31.326Z,32.07
2018-09-03T23:23:59.627Z,33.87
2018-09-03T23:26:28.181Z,30.77
2018-09-03T23:28:56.564Z,34.67
2018-09-03T23:31:24.921Z,47.47
2018-09-03T23:33:53.313Z,29.40
2018-09-03T23:36:21.617Z,31.47
2018-09-03T23:38:49.921Z,33.63
2018-09-03T23:41:18.173Z,35.57
2018-09-03T23:43:46.577Z,37.43
2018-09-03T23:46:14.849Z,33.63
2018-09-03T23:48:43.149Z,37.60
2018-09-03T23:51:11.530Z,35.10
2018-09-03T23:53:39.934Z,35.83
2018-09-03T23:56:08.253Z,34.97
2018-09-03T23:58:36.588Z,32.30
